Time;durP1;ratioP1;P1;durP2;ratioP2;P2;SDS_P1;SDS_P2;PMS_P1;PMS_P2;Temp;Humidity;BMP_temperature;BMP_pressure;BME280_temperature;BME280_humidity;BME280_pressure;Samples;Min_cycle;Max_cycle;Signal;HPM_P1;HPM_P2
2022/01/24 00:01:58;;;;;;;41.75;29.85;;;;;;;4.40;83.02;103445.66;5012170;28;20018;-69
2022/01/24 00:04:24;;;;;;;38.05;27.75;;;;;;;4.38;81.56;103436.91;5011837;28;20138;-69
2022/01/24 00:06:50;;;;;;;35.05;25.48;;;;;;;4.36;80.88;103436.03;5011868;28;20084;-70
2022/01/24 00:09:16;;;;;;;38.40;30.17;;;;;;;4.36;80.71;103437.81;5012075;28;20583;-70
2022/01/24 00:14:53;;;;;;;41.50;31.48;;;;;;;4.31;80.79;103429.06;5011984;28;20042;-70
2022/01/24 00:28:03;;;;;;;31.40;24.00;;;;;;;4.25;78.84;103430.00;5018444;28;20048;-69
2022/01/24 00:30:28;;;;;;;30.33;23.08;;;;;;;4.25;79.31;103435.28;5027712;28;20026;-70
2022/01/24 00:32:53;;;;;;;33.05;24.98;;;;;;;4.24;79.05;103429.13;5030159;28;20410;-69
2022/01/24 00:35:19;;;;;;;33.55;24.27;;;;;;;4.21;78.23;103421.28;5029017;28;20033;-69
2022/01/24 00:37:44;;;;;;;33.10;24.90;;;;;;;4.22;79.06;103427.41;5027771;28;20087;-69
2022/01/24 00:40:10;;;;;;;35.72;26.02;;;;;;;4.21;79.11;103421.28;5031090;28;20491;-69
2022/01/24 00:42:51;;;;;;;33.53;25.02;;;;;;;4.20;78.09;103416.88;5025352;28;20049;-69
2022/01/24 00:45:28;;;;;;;36.45;25.02;;;;;;;4.19;78.57;103420.41;5031055;28;20137;-69
2022/01/24 00:55:41;;;;;;;33.47;25.15;;;;;;;4.18;78.94;103420.41;5031109;28;20033;-69
2022/01/24 00:58:06;;;;;;;33.67;24.83;;;;;;;4.16;78.69;103419.56;5027698;28;20037;-69
2022/01/24 01:00:31;;;;;;;35.53;24.92;;;;;;;4.17;78.46;103427.44;5025016;28;20021;-69
2022/01/24 01:02:56;;;;;;;32.75;24.23;;;;;;;4.17;78.11;103427.44;5023329;28;20025;-69
2022/01/24 01:08:12;;;;;;;37.15;27.00;;;;;;;4.17;79.47;103424.81;5029168;28;20045;-69
2022/01/24 01:18:50;;;;;;;38.30;26.95;;;;;;;4.17;81.11;103410.78;5026047;28;20044;-69
2022/01/24 01:21:16;;;;;;;38.63;27.00;;;;;;;4.16;78.99;103411.66;5021246;28;20029;-69
2022/01/24 01:23:55;;;;;;;35.95;26.63;;;;;;;4.17;79.74;103418.69;5030187;28;20079;-70
2022/01/24 01:26:29;;;;;;;35.95;25.27;;;;;;;4.15;78.97;103415.19;5024048;28;20033;-69
2022/01/24 01:29:03;;;;;;;33.15;23.35;;;;;;;4.15;78.40;103413.44;5030478;28;20084;-70
2022/01/24 01:55:15;;;;;;;36.00;26.55;;;;;;;4.11;80.29;103414.31;5029962;28;20037;-69
2022/01/24 01:57:41;;;;;;;36.88;25.75;;;;;;;4.11;79.06;103410.84;5021644;28;20057;-69
2022/01/24 02:00:08;;;;;;;34.33;24.70;;;;;;;4.09;79.26;103413.47;5029515;28;20538;-70
2022/01/24 02:02:33;;;;;;;34.00;24.85;;;;;;;4.10;78.55;103415.22;5030192;28;20117;-69
2022/01/24 02:04:59;;;;;;;31.70;23.52;;;;;;;4.08;78.87;103406.50;5022216;28;20125;-69
2022/01/24 02:07:24;;;;;;;34.00;24.50;;;;;;;4.08;79.50;103409.13;5030133;28;20029;-70
2022/01/24 02:09:49;;;;;;;30.27;22.48;;;;;;;4.08;78.58;103409.13;5029805;28;20087;-69
2022/01/24 02:12:19;;;;;;;31.38;22.75;;;;;;;4.07;78.36;103410.00;5024783;28;20029;-70
2022/01/24 02:14:54;;;;;;;31.33;22.13;;;;;;;4.04;78.43;103402.97;5030796;28;20037;-69
2022/01/24 02:17:29;;;;;;;28.92;22.60;;;;;;;4.05;78.85;103410.00;5017598;28;20040;-70
2022/01/24 02:24:59;;;;;;;32.40;23.50;;;;;;;4.01;78.29;103394.25;5023768;28;20088;-69
2022/01/24 02:27:27;;;;;;;34.25;24.67;;;;;;;4.01;78.23;103391.63;5033865;28;20041;-69
2022/01/24 02:32:18;;;;;;;31.95;24.98;;;;;;;3.99;78.58;103396.03;5023380;28;20471;-69
2022/01/24 02:34:46;;;;;;;33.03;25.00;;;;;;;3.98;78.67;103394.28;5017295;28;20099;-69
2022/01/24 02:37:15;;;;;;;35.13;25.95;;;;;;;3.97;78.42;103393.41;5030043;28;20029;-69
2022/01/24 02:50:44;;;;;;;33.67;25.63;;;;;;;3.95;78.67;103389.06;5027188;28;20049;-69
2022/01/24 02:53:10;;;;;;;33.92;25.23;;;;;;;3.94;77.97;103382.91;5021130;28;20052;-69
2022/01/24 02:55:39;;;;;;;34.60;25.17;;;;;;;3.94;78.23;103388.16;5033015;28;20030;-69
2022/01/24 02:58:04;;;;;;;32.75;25.00;;;;;;;3.94;78.38;103388.16;5030653;28;20030;-69
2022/01/24 03:00:30;;;;;;;33.35;25.30;;;;;;;3.94;78.08;103388.16;5023475;28;20036;-69
2022/01/24 03:02:55;;;;;;;32.53;24.92;;;;;;;3.91;78.16;103382.94;5029017;28;20492;-69
2022/01/24 03:05:20;;;;;;;34.75;26.13;;;;;;;3.91;78.30;103382.06;5032833;28;20049;-69
2022/01/24 03:07:46;;;;;;;36.08;26.13;;;;;;;3.93;78.86;103386.44;5031265;28;20183;-69
2022/01/24 03:10:24;;;;;;;34.45;24.80;;;;;;;3.91;78.92;103376.81;5032756;28;20490;-69
2022/01/24 03:12:59;;;;;;;36.05;25.60;;;;;;;3.90;78.25;103373.31;5033065;28;20033;-69
2022/01/24 03:15:25;;;;;;;35.03;25.23;;;;;;;3.90;78.37;103375.94;5020068;28;20041;-69
2022/01/24 03:17:50;;;;;;;34.13;25.38;;;;;;;3.91;78.79;103371.53;5032743;28;20391;-69
2022/01/24 03:20:15;;;;;;;33.97;25.70;;;;;;;3.91;78.35;103375.03;5032482;28;20037;-69
2022/01/24 03:22:41;;;;;;;32.50;24.83;;;;;;;3.90;78.36;103373.31;5030974;28;20033;-69
2022/01/24 03:25:06;;;;;;;35.30;25.63;;;;;;;3.88;78.96;103362.81;5032392;28;20191;-69
2022/01/24 03:27:31;;;;;;;32.35;24.10;;;;;;;3.89;79.17;103363.66;5024138;28;20036;-68
2022/01/24 03:29:57;;;;;;;33.45;25.42;;;;;;;3.89;79.04;103369.78;5032355;28;20456;-69
2022/01/24 03:32:22;;;;;;;32.83;24.30;;;;;;;3.89;78.98;103364.53;5032347;28;20036;-69
2022/01/24 03:34:47;;;;;;;34.92;25.73;;;;;;;3.88;79.21;103365.44;5025736;28;20036;-69
2022/01/24 03:37:12;;;;;;;34.35;25.52;;;;;;;3.88;79.28;103362.81;5031523;28;20026;-69
2022/01/24 03:39:38;;;;;;;32.13;24.77;;;;;;;3.88;79.38;103365.44;5024553;28;20076;-69
2022/01/24 03:42:03;;;;;;;34.78;26.50;;;;;;;3.89;79.89;103366.28;5032103;28;20017;-68
2022/01/24 03:44:29;;;;;;;35.00;25.38;;;;;;;3.89;79.74;103363.66;5032336;28;20040;-69
2022/01/24 03:47:13;;;;;;;35.05;24.58;;;;;;;3.89;79.19;103366.28;5023599;28;20099;-69
2022/01/24 03:49:45;;;;;;;35.67;24.83;;;;;;;3.88;78.67;103370.69;5031959;28;20080;-69
2022/01/24 03:52:19;;;;;;;31.88;23.70;;;;;;;3.87;79.00;103371.56;5032196;28;20029;-69
2022/01/24 03:54:46;;;;;;;32.17;24.98;;;;;;;3.86;79.53;103368.94;5024808;28;20053;-69
2022/01/24 03:57:13;;;;;;;32.35;24.90;;;;;;;3.87;79.84;103365.44;5032051;28;20175;-69
2022/01/24 03:59:39;;;;;;;37.25;25.73;;;;;;;3.86;79.02;103369.84;5031778;28;20414;-68
2022/01/24 04:02:05;;;;;;;30.85;24.20;;;;;;;3.84;79.29;103366.31;5028502;28;20033;-69
2022/01/24 04:04:30;;;;;;;32.83;25.73;;;;;;;3.85;79.73;103368.09;5025405;28;20033;-69
2022/01/24 04:06:56;;;;;;;35.15;25.00;;;;;;;3.85;79.78;103365.44;5031670;28;20024;-69
2022/01/24 04:09:22;;;;;;;34.63;25.33;;;;;;;3.83;78.20;103372.50;5030596;28;20029;-69
2022/01/24 04:11:51;;;;;;;34.72;26.55;;;;;;;3.82;78.88;103364.63;5029216;28;20459;-69
2022/01/24 04:22:02;;;;;;;36.28;26.33;;;;;;;3.81;79.40;103358.47;5031380;28;20123;-68
2022/01/24 04:24:28;;;;;;;35.50;27.00;;;;;;;3.80;79.75;103361.13;5022526;28;20121;-69
2022/01/24 04:26:53;;;;;;;38.05;27.30;;;;;;;3.80;79.31;103355.88;5031295;28;20429;-69
2022/01/24 04:29:19;;;;;;;35.83;26.90;;;;;;;3.79;79.39;103360.22;5031245;28;20024;-69
2022/01/24 04:31:45;;;;;;;35.15;27.08;;;;;;;3.79;79.05;103356.75;5019653;28;20033;-68
2022/01/24 04:34:10;;;;;;;37.55;26.80;;;;;;;3.78;79.35;103354.97;5030048;28;20494;-69
2022/01/24 04:36:36;;;;;;;38.15;27.27;;;;;;;3.78;79.42;103366.41;5031115;28;20111;-69
2022/01/24 04:39:04;;;;;;;36.28;26.42;;;;;;;3.78;79.57;103362.88;5030281;28;20056;-69
2022/01/24 04:41:34;;;;;;;36.63;26.58;;;;;;;3.77;79.21;103364.63;5020247;28;20471;-69
2022/01/24 04:46:51;;;;;;;35.95;25.27;;;;;;;3.77;78.98;103363.78;5012312;28;20034;-69
2022/01/24 04:57:03;;;;;;;32.55;24.23;;;;;;;3.76;79.23;103360.25;5031004;28;20052;-69
2022/01/24 04:59:28;;;;;;;31.45;24.25;;;;;;;3.75;79.58;103368.16;5030637;28;20025;-69
2022/01/24 05:01:54;;;;;;;31.65;24.48;;;;;;;3.74;79.72;103369.91;5012404;28;20083;-68
2022/01/24 05:04:19;;;;;;;34.17;24.58;;;;;;;3.75;79.52;103370.78;5009790;28;20040;-69
2022/01/24 05:06:44;;;;;;;32.92;24.45;;;;;;;3.73;79.29;103368.19;5008710;28;20030;-69
2022/01/24 05:09:09;;;;;;;32.75;24.75;;;;;;;3.72;79.47;103374.31;5009124;28;20085;-69
2022/01/24 05:11:51;;;;;;;35.08;25.60;;;;;;;3.72;79.14;103374.31;5009104;28;20033;-69
2022/01/24 05:25:13;;;;;;;31.92;24.67;;;;;;;3.66;79.23;103380.50;5011102;28;20044;-68
2022/01/24 05:27:38;;;;;;;30.00;23.33;;;;;;;3.65;78.41;103378.75;5010561;28;20030;-68
2022/01/24 05:30:05;;;;;;;31.70;24.30;;;;;;;3.64;79.37;103368.25;5010735;28;20033;-68
2022/01/24 05:32:30;;;;;;;31.20;23.90;;;;;;;3.64;79.23;103368.25;5029343;28;20036;-68
2022/01/24 05:34:55;;;;;;;31.33;24.25;;;;;;;3.62;79.07;103365.63;5026430;28;20026;-69
2022/01/24 05:37:21;;;;;;;30.55;23.60;;;;;;;3.61;79.22;103355.97;5027287;28;20029;-69
2022/01/24 05:39:46;;;;;;;31.90;23.55;;;;;;;3.59;79.25;103360.38;5030411;28;20320;-68
2022/01/24 05:42:11;;;;;;;32.28;23.52;;;;;;;3.60;79.74;103362.13;5028445;28;20030;-68
2022/01/24 05:44:36;;;;;;;33.22;24.73;;;;;;;3.59;79.62;103352.50;5021810;28;20455;-68
2022/01/24 05:47:02;;;;;;;31.38;23.63;;;;;;;3.59;79.11;103367.41;5030086;28;20040;-69
2022/01/24 05:49:27;;;;;;;33.95;25.05;;;;;;;3.56;79.26;103362.16;5030177;28;20025;-69
2022/01/24 05:51:52;;;;;;;33.30;23.10;;;;;;;3.57;79.38;103371.81;5030044;28;20030;-68
2022/01/24 05:54:18;;;;;;;34.38;24.40;;;;;;;3.52;78.98;103370.06;5027117;28;20430;-69
2022/01/24 05:56:43;;;;;;;34.45;24.10;;;;;;;3.51;79.30;103372.69;5028918;28;20112;-69
2022/01/24 05:59:08;;;;;;;33.25;23.70;;;;;;;3.51;79.05;103372.69;5031132;28;20037;-69
2022/01/24 06:01:34;;;;;;;32.33;23.60;;;;;;;3.48;79.38;103373.59;5033774;28;20376;-69
2022/01/24 06:04:00;;;;;;;31.10;22.90;;;;;;;3.44;79.18;103363.97;5033474;28;20041;-69
2022/01/24 06:06:25;;;;;;;32.72;22.92;;;;;;;3.46;79.84;103375.34;5033946;28;20395;-69
2022/01/24 06:08:50;;;;;;;29.73;21.73;;;;;;;3.46;79.78;103371.84;5034108;28;20033;-68
2022/01/24 06:11:17;;;;;;;30.13;23.00;;;;;;;3.46;79.38;103377.09;5016280;28;20116;-68
2022/01/24 06:13:45;;;;;;;30.00;22.73;;;;;;;3.43;79.59;103370.13;5014718;28;20438;-69
2022/01/24 06:16:10;;;;;;;31.67;22.42;;;;;;;3.43;79.30;103364.88;5014303;28;20030;-68
2022/01/24 06:18:35;;;;;;;33.33;24.15;;;;;;;3.43;79.74;103369.25;5014069;28;20018;-68
2022/01/24 06:21:00;;;;;;;31.65;23.40;;;;;;;3.42;80.05;103368.38;5013946;28;20045;-69
2022/01/24 06:23:26;;;;;;;30.02;22.65;;;;;;;3.38;80.00;103371.91;5013960;28;20436;-69
2022/01/24 06:25:51;;;;;;;31.75;23.00;;;;;;;3.38;79.94;103369.28;5013907;28;20026;-69
2022/01/24 06:28:16;;;;;;;31.85;23.45;;;;;;;3.37;80.09;103372.78;5013680;28;20026;-68
2022/01/24 06:30:43;;;;;;;30.88;22.13;;;;;;;3.39;80.13;103378.91;5031838;28;20029;-69
2022/01/24 06:33:08;;;;;;;30.95;22.73;;;;;;;3.36;79.66;103373.66;5033546;28;20498;-69
2022/01/24 06:35:34;;;;;;;34.35;22.83;;;;;;;3.37;79.83;103371.91;5033375;28;20026;-69
2022/01/24 06:38:00;;;;;;;29.30;21.75;;;;;;;3.37;79.92;103375.41;5024652;28;20475;-69
2022/01/24 06:40:25;;;;;;;31.98;23.10;;;;;;;3.36;80.23;103371.03;5025453;28;20442;-69
2022/01/24 06:42:50;;;;;;;33.10;23.08;;;;;;;3.36;80.00;103364.91;5031747;28;20083;-69
2022/01/24 06:45:15;;;;;;;30.55;22.50;;;;;;;3.32;80.56;103372.81;5033381;28;20053;-69
2022/01/24 06:47:41;;;;;;;32.38;22.67;;;;;;;3.34;80.29;103372.78;5033181;28;20029;-69
2022/01/24 06:50:08;;;;;;;31.05;22.70;;;;;;;3.33;80.31;103377.19;5029038;28;20083;-69
2022/01/24 06:52:33;;;;;;;31.80;22.85;;;;;;;3.36;80.41;103383.28;5032743;28;20034;-69
2022/01/24 06:54:58;;;;;;;32.00;23.50;;;;;;;3.35;80.30;103385.06;5033125;28;20561;-69
2022/01/24 06:57:24;;;;;;;30.48;22.33;;;;;;;3.33;80.50;103377.19;5029302;28;20452;-69
2022/01/24 06:59:49;;;;;;;31.73;21.95;;;;;;;3.34;80.00;103381.53;5034371;28;20156;-69
2022/01/24 07:02:15;;;;;;;29.15;20.77;;;;;;;3.32;80.06;103380.69;5032392;28;20412;-69
2022/01/24 07:04:41;;;;;;;29.35;21.25;;;;;;;3.34;80.52;103385.94;5034353;28;20079;-69
2022/01/24 07:07:08;;;;;;;29.55;21.45;;;;;;;3.30;80.65;103378.97;5021837;28;20049;-69
2022/01/24 07:09:34;;;;;;;30.52;21.45;;;;;;;3.25;80.88;103371.09;5023006;28;20037;-69
2022/01/24 07:11:59;;;;;;;32.03;22.10;;;;;;;3.30;80.46;103389.47;5037802;28;20506;-69
2022/01/24 07:14:25;;;;;;;33.17;22.15;;;;;;;3.25;80.10;103386.00;5025822;28;20044;-69
2022/01/24 07:17:06;;;;;;;30.75;21.67;;;;;;;3.25;80.62;103389.47;5013798;28;20121;-68
2022/01/24 07:19:32;;;;;;;30.48;21.80;;;;;;;3.26;80.60;103388.59;5015363;28;20052;-69
2022/01/24 07:21:59;;;;;;;31.48;21.13;;;;;;;3.24;80.59;103390.34;5015943;28;20543;-69
2022/01/24 07:24:25;;;;;;;30.65;22.15;;;;;;;3.24;80.39;103390.34;5015200;28;20117;-69
2022/01/24 07:26:51;;;;;;;29.33;20.95;;;;;;;3.23;80.40;103398.25;5022735;28;20124;-69
2022/01/24 07:29:17;;;;;;;31.23;21.30;;;;;;;3.22;80.66;103394.75;5016186;28;20022;-69
2022/01/24 07:31:44;;;;;;;29.67;20.65;;;;;;;3.23;80.83;103399.13;5014487;28;20121;-69
2022/01/24 07:34:09;;;;;;;26.77;20.40;;;;;;;3.24;80.97;103394.75;5020551;28;20035;-69
2022/01/24 07:36:35;;;;;;;30.58;21.25;;;;;;;3.23;80.74;103392.97;5013988;28;20717;-69
2022/01/24 07:39:00;;;;;;;28.00;19.92;;;;;;;3.23;81.13;103396.50;5015118;28;20463;-69
2022/01/24 07:41:30;;;;;;;29.63;21.55;;;;;;;3.23;80.94;103395.63;5015165;28;20077;-69
2022/01/24 07:43:57;;;;;;;30.75;22.85;;;;;;;3.23;80.44;103396.50;5013804;28;20029;-69
2022/01/24 07:46:22;;;;;;;29.58;21.35;;;;;;;3.21;80.21;103395.63;5024132;28;20028;-69
2022/01/24 07:48:48;;;;;;;29.48;21.33;;;;;;;3.20;80.64;103393.91;5016865;28;20017;-69
2022/01/24 07:51:15;;;;;;;33.10;22.48;;;;;;;3.21;80.51;103394.75;5013460;28;20033;-69
2022/01/24 07:53:41;;;;;;;29.30;21.50;;;;;;;3.21;80.57;103400.00;5012389;28;20092;-69
2022/01/24 07:56:07;;;;;;;31.70;22.80;;;;;;;3.20;80.41;103403.50;5012346;28;20033;-69
2022/01/24 07:58:32;;;;;;;32.88;22.88;;;;;;;3.19;79.77;103409.66;5018651;28;20041;-69
2022/01/24 08:00:57;;;;;;;33.13;23.02;;;;;;;3.17;80.45;103412.28;5031642;28;20029;-69
2022/01/24 08:03:23;;;;;;;31.63;22.13;;;;;;;3.17;80.38;103420.16;5026663;28;20041;-69
2022/01/24 08:05:48;;;;;;;32.38;23.52;;;;;;;3.19;80.46;103422.78;5022321;28;20112;-69
2022/01/24 08:08:14;;;;;;;32.63;23.98;;;;;;;3.20;80.64;103419.25;5031528;28;20045;-69
2022/01/24 08:10:39;;;;;;;34.10;23.33;;;;;;;3.17;80.49;103420.16;5028491;28;20040;-69
2022/01/24 08:13:04;;;;;;;35.35;24.65;;;;;;;3.20;80.31;103419.25;5031065;28;20038;-69
2022/01/24 08:15:30;;;;;;;33.15;24.35;;;;;;;3.22;80.47;103428.03;5018149;28;20030;-69
2022/01/24 08:17:55;;;;;;;34.88;24.58;;;;;;;3.20;79.68;103422.78;5023445;28;20487;-69
2022/01/24 08:20:21;;;;;;;33.78;23.95;;;;;;;3.23;79.96;103435.00;5030675;28;20112;-69
2022/01/24 08:22:47;;;;;;;34.63;24.33;;;;;;;3.23;79.44;103429.75;5020504;28;20754;-68
2022/01/24 08:25:13;;;;;;;35.78;25.45;;;;;;;3.22;79.76;103435.91;5017912;28;20101;-69
2022/01/24 08:27:39;;;;;;;35.53;25.23;;;;;;;3.21;80.04;103421.00;5013260;28;20046;-68
2022/01/24 08:30:09;;;;;;;35.15;25.33;;;;;;;3.20;79.63;103419.25;5011055;28;20026;-68
2022/01/24 08:32:34;;;;;;;34.97;25.10;;;;;;;3.23;79.44;103432.38;5018902;28;20057;-67
2022/01/24 08:35:00;;;;;;;32.83;25.02;;;;;;;3.21;79.60;103435.00;5029497;28;20510;-67
2022/01/24 08:37:26;;;;;;;36.00;24.20;;;;;;;3.21;79.73;103434.16;5030879;28;20053;-68
2022/01/24 08:39:51;;;;;;;34.50;25.33;;;;;;;3.21;78.74;103428.91;5031722;28;20083;-68
2022/01/24 08:42:29;;;;;;;34.58;25.77;;;;;;;3.19;79.15;103434.16;5019116;28;20124;-67
2022/01/24 08:47:21;;;;;;;35.25;24.35;;;;;;;3.18;78.67;103434.16;5032272;28;20069;-68
2022/01/24 08:49:47;;;;;;;34.78;25.58;;;;;;;3.19;79.34;103430.66;5021411;28;20018;-67
2022/01/24 08:52:12;;;;;;;34.28;25.20;;;;;;;3.22;79.15;103435.91;5025822;28;20046;-68
2022/01/24 08:54:37;;;;;;;33.15;24.25;;;;;;;3.23;79.28;103432.38;5016487;28;20042;-68
2022/01/24 08:57:03;;;;;;;34.45;24.27;;;;;;;3.27;79.63;103444.63;5018917;28;20037;-69
2022/01/24 08:59:31;;;;;;;31.58;22.80;;;;;;;3.28;79.57;103439.38;5029466;28;20168;-68
2022/01/24 09:01:57;;;;;;;36.53;23.88;;;;;;;3.27;78.87;103436.75;5023206;28;20058;-68
2022/01/24 09:04:22;;;;;;;34.40;24.15;;;;;;;3.29;79.01;103432.38;5030344;28;20026;-68
2022/01/24 09:06:48;;;;;;;35.08;25.17;;;;;;;3.30;78.81;103431.50;5030544;28;20036;-69
2022/01/24 09:09:15;;;;;;;32.38;23.13;;;;;;;3.32;78.66;103434.97;5030625;28;20033;-67
2022/01/24 09:11:40;;;;;;;32.35;24.33;;;;;;;3.33;78.79;103436.72;5028425;28;20024;-68
2022/01/24 09:14:06;;;;;;;36.38;24.80;;;;;;;3.35;78.97;103432.34;5030141;28;20034;-69
2022/01/24 09:16:33;;;;;;;31.38;22.77;;;;;;;3.37;79.02;103441.09;5028358;28;20455;-69
2022/01/24 09:18:58;;;;;;;32.05;22.90;;;;;;;3.36;77.65;103441.97;5031940;28;20033;-68
2022/01/24 09:21:24;;;;;;;33.10;22.95;;;;;;;3.37;78.45;103442.84;5032152;28;20017;-69
2022/01/24 09:23:49;;;;;;;31.50;22.73;;;;;;;3.36;78.33;103446.34;5024817;28;20510;-68
2022/01/24 09:26:15;;;;;;;44.15;25.92;;;;;;;3.36;78.19;103444.59;5025209;28;20036;-68
2022/01/24 09:28:41;;;;;;;35.97;25.30;;;;;;;3.41;78.46;103441.94;5029494;28;20140;-68
2022/01/24 09:31:06;;;;;;;34.80;24.02;;;;;;;3.42;78.29;103444.56;5028415;28;20044;-68
2022/01/24 09:33:32;;;;;;;31.60;22.58;;;;;;;3.42;77.65;103441.94;5024396;28;20124;-68
2022/01/24 09:36:00;;;;;;;32.83;23.13;;;;;;;3.43;78.33;103434.91;5028642;28;20048;-68
2022/01/24 09:38:29;;;;;;;33.30;23.48;;;;;;;3.45;78.19;103436.69;5036722;28;20108;-69
2022/01/24 09:40:54;;;;;;;30.40;22.52;;;;;;;3.49;78.27;103440.16;5026574;28;20547;-69
2022/01/24 09:43:20;;;;;;;31.92;22.58;;;;;;;3.50;77.65;103439.28;5036548;28;20057;-68
2022/01/24 09:45:46;;;;;;;30.23;21.52;;;;;;;3.51;77.72;103439.28;5030344;28;20045;-68
2022/01/24 09:48:12;;;;;;;30.80;21.52;;;;;;;3.51;77.87;103435.75;5036950;28;20476;-68
2022/01/24 09:50:37;;;;;;;31.05;22.38;;;;;;;3.50;77.02;103440.16;5035053;28;20031;-68
2022/01/24 09:53:03;;;;;;;32.50;22.15;;;;;;;3.46;77.31;103433.16;5024207;28;20051;-69
2022/01/24 09:55:28;;;;;;;31.85;22.60;;;;;;;3.49;77.73;103437.53;5036200;28;20029;-68
2022/01/24 09:57:54;;;;;;;29.83;20.92;;;;;;;3.51;77.88;103435.75;5036469;28;20036;-68
2022/01/24 10:00:24;;;;;;;31.50;20.52;;;;;;;3.52;76.98;103438.38;5035606;28;20029;-69
2022/01/24 10:02:50;;;;;;;28.55;21.00;;;;;;;3.56;76.93;103435.75;5032347;28;20075;-69
2022/01/24 10:05:22;;;;;;;29.17;21.77;;;;;;;3.58;76.91;103440.13;5036525;28;20029;-69
2022/01/24 10:07:58;;;;;;;29.05;20.35;;;;;;;3.62;76.93;103444.47;5032953;28;20111;-69
2022/01/24 10:10:28;;;;;;;29.35;19.80;;;;;;;3.63;76.57;103440.06;5028915;28;20022;-69
2022/01/24 10:18:09;;;;;;;30.38;21.52;;;;;;;3.69;76.42;103438.28;5038040;28;20064;-69
2022/01/24 10:20:40;;;;;;;31.88;20.75;;;;;;;3.67;76.59;103440.03;5035776;28;20026;-69
2022/01/24 10:23:21;;;;;;;28.65;19.73;;;;;;;3.65;76.26;103439.19;5037960;28;20076;-69
2022/01/24 10:26:04;;;;;;;30.65;20.65;;;;;;;3.61;75.69;103436.59;5038394;28;20025;-69
2022/01/24 10:28:38;;;;;;;29.70;20.13;;;;;;;3.60;75.21;103435.72;5028531;28;20030;-69
2022/01/24 10:31:06;;;;;;;28.15;19.67;;;;;;;3.62;75.30;103433.09;5028110;28;20037;-69
2022/01/24 10:33:31;;;;;;;27.75;19.77;;;;;;;3.66;75.89;103432.16;5026969;28;20492;-69
2022/01/24 10:35:57;;;;;;;28.45;20.20;;;;;;;3.71;76.38;103438.28;5041749;28;20041;-69
2022/01/24 10:38:42;;;;;;;28.42;19.30;;;;;;;3.77;77.06;103435.63;5031140;28;20044;-69
2022/01/24 10:41:17;;;;;;;31.45;21.95;;;;;;;3.81;75.88;103428.56;5021890;28;20029;-69
2022/01/24 10:43:44;;;;;;;29.33;20.35;;;;;;;3.87;76.69;103428.53;5020682;28;20029;-69
2022/01/24 10:46:10;;;;;;;29.33;20.63;;;;;;;3.88;75.79;103427.63;5024774;28;20108;-69
2022/01/24 10:48:44;;;;;;;29.85;20.58;;;;;;;3.91;75.08;103429.38;5023123;28;20129;-70
2022/01/24 10:51:21;;;;;;;28.27;20.58;;;;;;;3.92;75.49;103421.50;5015389;28;20469;-69
2022/01/24 10:53:50;;;;;;;29.17;21.05;;;;;;;3.93;74.85;103420.63;5028794;28;20393;-69
2022/01/24 10:56:32;;;;;;;27.40;20.53;;;;;;;4.02;75.46;103414.41;5013204;28;20030;-69
2022/01/24 10:59:03;;;;;;;27.58;19.27;;;;;;;4.04;74.98;103407.38;5015376;28;20480;-69
2022/01/24 11:01:29;;;;;;;28.15;20.02;;;;;;;4.06;74.43;103410.84;5011717;28;20026;-69
2022/01/24 11:04:03;;;;;;;30.13;20.17;;;;;;;4.09;74.93;103416.09;5017225;28;20022;-69
2022/01/24 11:06:32;;;;;;;30.08;21.55;;;;;;;4.07;74.48;103415.25;5013496;28;20071;-71
2022/01/24 11:09:23;;;;;;;31.40;21.75;;;;;;;4.12;74.95;103409.97;5015957;28;20038;-69
2022/01/24 11:12:11;;;;;;;28.75;20.88;;;;;;;4.12;74.47;103410.81;5021252;28;20026;-69
2022/01/24 11:14:41;;;;;;;28.55;19.58;;;;;;;4.14;74.36;103409.03;5032511;28;20032;-70
2022/01/24 11:17:10;;;;;;;31.50;22.23;;;;;;;4.18;74.56;103408.16;5031485;28;20108;-69
2022/01/24 11:22:05;;;;;;;30.33;20.80;;;;;;;4.28;74.39;103406.31;5026746;28;20090;-70
2022/01/24 11:24:45;;;;;;;32.35;21.45;;;;;;;4.35;75.18;103410.63;5036261;28;20419;-69
2022/01/24 11:27:11;;;;;;;30.17;20.60;;;;;;;4.38;73.93;103413.22;5025261;28;20053;-70
2022/01/24 11:29:38;;;;;;;33.15;22.38;;;;;;;4.41;74.12;103401.78;5032395;28;20079;-70
2022/01/24 11:32:22;;;;;;;31.67;22.40;;;;;;;4.45;74.20;103398.25;5032572;28;20038;-69
2022/01/24 11:34:50;;;;;;;32.22;23.13;;;;;;;4.45;73.60;103398.25;5025573;28;20028;-70
2022/01/24 11:37:36;;;;;;;32.42;24.45;;;;;;;4.52;75.20;103397.31;5015087;28;20053;-70
2022/01/24 11:40:10;;;;;;;31.63;22.63;;;;;;;4.52;73.92;103396.44;5014798;28;20054;-69
2022/01/24 11:42:36;;;;;;;32.58;23.23;;;;;;;4.56;74.17;103401.66;5014257;28;20052;-70
2022/01/24 11:45:10;;;;;;;31.20;23.38;;;;;;;4.59;73.51;103406.00;5032768;28;20056;-69
2022/01/24 11:47:36;;;;;;;82.07;26.40;;;;;;;4.58;72.22;103402.50;5029952;28;20033;-70
2022/01/24 11:50:24;;;;;;;53.30;25.80;;;;;;;4.61;73.11;103401.59;5019355;28;20030;-70
2022/01/24 11:52:51;;;;;;;31.55;21.52;;;;;;;4.60;72.55;103386.69;5014384;28;20467;-70
2022/01/24 11:55:30;;;;;;;31.48;21.95;;;;;;;4.64;73.79;103391.91;5019217;28;20132;-70
2022/01/24 11:58:03;;;;;;;29.77;22.05;;;;;;;4.64;72.74;103391.03;5014092;28;20038;-70
2022/01/24 12:00:35;;;;;;;30.73;22.02;;;;;;;4.69;73.09;103391.00;5023816;28;20032;-70
2022/01/24 12:03:12;;;;;;;33.13;25.17;;;;;;;4.72;73.70;103389.19;5017793;28;20038;-69
2022/01/24 12:05:48;;;;;;;33.00;24.17;;;;;;;4.72;73.01;103389.19;5017732;28;20602;-70
2022/01/24 12:08:28;;;;;;;31.02;22.60;;;;;;;4.74;73.54;103379.50;5014046;28;20447;-70
2022/01/24 12:10:57;;;;;;;32.80;24.17;;;;;;;4.72;72.51;103369.91;5012981;28;20034;-69
2022/01/24 12:13:29;;;;;;;36.30;25.60;;;;;;;4.73;73.00;103366.34;5011292;28;20064;-70
2022/01/24 12:15:57;;;;;;;31.85;23.02;;;;;;;4.75;72.22;103369.88;5017724;28;20036;-69
2022/01/24 12:18:26;;;;;;;32.50;24.35;;;;;;;4.77;71.85;103373.34;5020759;28;20042;-69
2022/01/24 12:21:16;;;;;;;33.45;25.42;;;;;;;4.87;73.55;103372.34;5015300;28;20030;-70
2022/01/24 12:23:56;;;;;;;32.83;24.05;;;;;;;4.85;71.66;103368.00;5025029;28;20091;-69
2022/01/24 12:26:25;;;;;;;35.05;24.60;;;;;;;4.82;72.26;103375.03;5028392;28;20112;-69
2022/01/24 12:28:59;;;;;;;29.77;22.43;;;;;;;4.84;71.69;103366.25;5022945;28;20037;-70
2022/01/24 12:31:36;;;;;;;35.00;22.92;;;;;;;4.89;72.60;103367.06;5027603;28;20666;-70
2022/01/24 12:34:11;;;;;;;28.67;22.80;;;;;;;4.88;71.02;103365.31;5015535;28;20051;-69
2022/01/24 12:36:46;;;;;;;31.10;23.98;;;;;;;4.86;70.99;103369.72;5029715;28;20030;-69
2022/01/24 12:39:21;;;;;;;30.17;21.90;;;;;;;4.80;70.50;103373.31;5022708;28;20038;-69
2022/01/24 12:41:53;;;;;;;29.50;21.65;;;;;;;4.76;71.09;103364.59;5021440;28;20025;-69
2022/01/24 12:47:13;;;;;;;26.95;20.45;;;;;;;4.80;71.18;103361.00;5036959;28;20497;-69
2022/01/24 12:49:40;;;;;;;29.92;21.73;;;;;;;4.86;70.95;103352.16;5027537;28;20036;-69
2022/01/24 12:52:11;;;;;;;30.15;21.73;;;;;;;4.86;71.28;103352.16;5029266;28;20107;-69
2022/01/24 12:54:43;;;;;;;29.40;21.48;;;;;;;4.85;70.87;103353.06;5029412;28;20099;-69
2022/01/24 12:57:10;;;;;;;28.95;21.17;;;;;;;4.87;70.70;103353.06;5020652;28;20329;-70
2022/01/24 12:59:37;;;;;;;29.25;21.67;;;;;;;4.85;71.03;103353.06;5029311;28;20029;-69
2022/01/24 13:02:08;;;;;;;29.88;21.38;;;;;;;4.83;70.09;103344.31;5026829;28;20033;-69
2022/01/24 13:04:40;;;;;;;29.38;21.65;;;;;;;4.81;70.30;103344.34;5028943;28;20080;-70
2022/01/24 13:07:07;;;;;;;30.90;22.52;;;;;;;4.83;71.38;103333.78;5028049;28;20221;-70
2022/01/24 13:09:34;;;;;;;29.25;21.25;;;;;;;4.83;70.82;103333.78;5028102;28;20025;-70
2022/01/24 13:12:04;;;;;;;31.20;22.35;;;;;;;4.86;71.48;103328.47;5020881;28;20061;-70
2022/01/24 13:14:51;;;;;;;31.25;22.75;;;;;;;4.93;72.26;103329.25;5025490;28;20071;-69
2022/01/24 13:22:58;;;;;;;29.50;21.08;;;;;;;4.93;70.94;103321.34;5023976;28;20344;-70
2022/01/24 13:25:27;;;;;;;31.55;22.02;;;;;;;4.92;70.47;103320.50;5029065;28;20704;-70